Terminal Aerodrome Forecast
Issued by NWS

Home | Current Version | Previous Version | Text Only | Print | Product List | Glossary On
Versions: 1 2 3 4 5 6 7 8 9 10 11 12 13 14 15
000
FTAK31 PAJN 300540
TAFAYA
TAF
PAYA 300540Z 3006/3106 16004KT P6SM VCSH SCT015 BKN070
     FM301800 VRB03KT P6SM VCSH BKN025 OVC050
     FM310000 30003KT P6SM SCT100 BKN250
      AMD LTD TO CLD VIS AND WIND 3006/3010=

USA.gov is the U.S. government's official web portal to all federal, state and local government web resources and services.